Fort Dodge Regional Airport Fort Dodge US
ICAO: KFOD
IATA: FOD
Category: Medium
Scheduled Services: Yes

Elevation: 1156 ft
TransAlt. 18000 ft.

Airport Communications:
AWOS 3:118.775
MINNEAPOLIS CNTR:134
RDO:122.3
CTAF/UNICOM:122.95

KFOD Zoom In..

If you have problems with the map follow the link
https://www.worldairports.se/pages/airport.php?
ICAO=KFOD

Runways:

(A) RW 06 length 6547 ft width 150 ft
ILS 109.10 / hdg 63

(B) RW 12 length 5301 ft width 100 ft
---- / hdg 125

(C) RW 24 length 6547 ft width 150 ft
---- / hdg 243

(D) RW 30 length 5301 ft width 100 ft
---- / hdg 305

Location; KFOD
Day. 17 / Time. 20.56 Zulu
* Altimeter: 30.09
* Temperature: -06° c. -21.2°f.
* Wind from: 130° Speed 13 kn with Gusts up to 20 kn.
Dewpoint: -07° c.
Visibility: 1 Statute Miles.
Clouds: Overcast 1000 ft.
Conditions: Light Snow.Conditions: Mist.

KFOD 172056Z AUTO 13013G20KT 1SM -SN BR OVC010 M06/M07 A3009 RMK AO2 CIG 007V015 SLP241 P0000 60000 T10561072 56069 FZRANO


Wind From 130°
Speed 13 kn.

 
 
jpsmedia worldairports.se 2020   terms of use